Brevator, Minnesota
Current Conditions -  °F | °C
As of 9:55 AM on Saturday 22 Nov 2014 (Local Time) from KDLH Reporting Station
Haze Haze  
Wind Chill: 22°   Ceiling: 600
Heat Index: 30°   Visibility: 2mi
Dew Point: 27°   Wind: 9mph
Humidity: 88%   Direction: 240°WSW
Pressure: 29.67"   Gusts: NA
Location:  46.8859°N, 92.4258°W
Report Text: KDLH 221555Z 24008KT 2SM BR OVC006 M01/M03 A2967 RMK AO2 SLP067 T10111028
Loading
Personal Weather Stations






























Interactive Weather Map New forecast layout! Learn more

10-Day Weather Forecast

Advertisements
Track Severe Weather on mobile